Ipiranga do Piaui, Brazil
Current Conditions -  °F | °C
As of 8:00 AM on Friday 19 Dec 2014 (Local Time) from SBTE Reporting Station
Clear Clear  
Wind Chill: 81°   Ceiling: Unl
Heat Index: 84°   Visibility: 6mi
Dew Point: 70°   Wind: 2mph
Humidity: 70%   Direction: 60°ENE
Pressure: 29.85"   Gusts: NA
Location:  6.83°S, 41.74°W
Report Text: SBTE 191100Z 06002KT CAVOK 27/21 Q1011
Loading
Personal Weather Stations






























Interactive Weather Map New forecast layout! Learn more

10-Day Weather Forecast

Advertisements
Track Severe Weather on mobile